createdAt,value
2017-11-03T00:01:53.904Z,100955
2017-11-03T00:04:22.078Z,100958
2017-11-03T00:06:50.361Z,100950
2017-11-03T00:09:18.521Z,100950
2017-11-03T00:11:46.669Z,100956
2017-11-03T00:14:15.701Z,100953
2017-11-03T00:16:44.028Z,100955
2017-11-03T00:19:12.842Z,100958
2017-11-03T00:21:41.013Z,100960
2017-11-03T00:24:09.312Z,100953
2017-11-03T00:26:37.479Z,100958
2017-11-03T00:29:05.837Z,100958
2017-11-03T00:31:34.034Z,100962
2017-11-03T00:34:02.160Z,100951
2017-11-03T00:36:30.260Z,100954
2017-11-03T00:38:59.177Z,100947
2017-11-03T00:41:27.328Z,100945
2017-11-03T00:43:56.216Z,100941
2017-11-03T00:46:25.104Z,100943
2017-11-03T00:48:53.988Z,100938
2017-11-03T00:51:23.229Z,100946
2017-11-03T00:53:51.357Z,100947
2017-11-03T00:56:19.505Z,100952
2017-11-03T00:58:47.628Z,100945
2017-11-03T01:01:15.799Z,100940
2017-11-03T01:03:44.874Z,100947
2017-11-03T01:06:13.072Z,100942
2017-11-03T01:08:41.284Z,100953
2017-11-03T01:11:10.321Z,100952
2017-11-03T01:13:38.483Z,100957
2017-11-03T01:16:06.652Z,100956
2017-11-03T01:18:34.808Z,100955
2017-11-03T01:21:02.922Z,100949
2017-11-03T01:23:31.075Z,100956
2017-11-03T01:25:59.221Z,100960
2017-11-03T01:28:27.693Z,100951
2017-11-03T01:30:55.837Z,100967
2017-11-03T01:33:24.236Z,100952
2017-11-03T01:35:52.545Z,100961
2017-11-03T01:38:20.675Z,100950
2017-11-03T01:40:49.042Z,100962
2017-11-03T01:43:17.172Z,100961
2017-11-03T01:45:45.688Z,100963
2017-11-03T01:48:15.027Z,100959
2017-11-03T01:50:43.536Z,100957
2017-11-03T01:53:11.711Z,100961
2017-11-03T01:55:39.860Z,100952
2017-11-03T01:58:08.032Z,100952
2017-11-03T02:00:36.533Z,100954
2017-11-03T02:03:04.692Z,100951
2017-11-03T02:05:32.833Z,100958
2017-11-03T02:08:01.074Z,100955
2017-11-03T02:10:30.758Z,100955
2017-11-03T02:12:58.925Z,100946
2017-11-03T02:15:27.944Z,100940
2017-11-03T02:17:56.113Z,100949
2017-11-03T02:20:24.224Z,100954
2017-11-03T02:22:52.358Z,100957
2017-11-03T02:25:20.566Z,100952
2017-11-03T02:27:48.920Z,100947
2017-11-03T02:30:17.244Z,100947
2017-11-03T02:32:45.556Z,100948
2017-11-03T02:35:15.764Z,100945
2017-11-03T02:37:44.240Z,100943
2017-11-03T02:40:12.412Z,100940
2017-11-03T02:42:40.582Z,100941
2017-11-03T02:45:08.724Z,100937
2017-11-03T02:47:36.849Z,100938
2017-11-03T02:50:04.960Z,100942
2017-11-03T02:52:33.109Z,100952
2017-11-03T02:55:01.231Z,100941
2017-11-03T02:57:29.478Z,100945
2017-11-03T02:59:57.632Z,100951
2017-11-03T03:02:26.993Z,100954
2017-11-03T03:04:55.137Z,100951
2017-11-03T03:07:24.192Z,100951
2017-11-03T03:09:52.288Z,100948
2017-11-03T03:12:20.644Z,100951
2017-11-03T03:14:48.793Z,100947
2017-11-03T03:17:16.956Z,100953
2017-11-03T03:19:45.296Z,100947
2017-11-03T03:22:14.391Z,100951
2017-11-03T03:24:43.464Z,100953
2017-11-03T03:27:11.676Z,100951
2017-11-03T03:29:41.535Z,100956
2017-11-03T03:32:09.656Z,100951
2017-11-03T03:34:38.772Z,100944
2017-11-03T03:37:07.353Z,100953
2017-11-03T03:39:36.266Z,100955
2017-11-03T03:42:04.430Z,100950
2017-11-03T03:44:32.592Z,100950
2017-11-03T03:47:00.867Z,100950
2017-11-03T03:49:29.792Z,100952
2017-11-03T03:51:58.962Z,100949
2017-11-03T03:54:27.112Z,100948
2017-11-03T03:56:55.257Z,100951
2017-11-03T03:59:24.605Z,100949
2017-11-03T04:01:52.817Z,100962
2017-11-03T04:04:21.872Z,100955
2017-11-03T04:06:49.997Z,100954
2017-11-03T04:09:18.188Z,100957
2017-11-03T04:11:46.316Z,100965
2017-11-03T04:14:14.506Z,100963
2017-11-03T04:16:42.931Z,100967
2017-11-03T04:19:11.320Z,100972
2017-11-03T04:21:40.049Z,100954
2017-11-03T04:24:10.908Z,100962
2017-11-03T04:26:39.302Z,100960
2017-11-03T04:29:07.447Z,100960
2017-11-03T04:31:35.582Z,100953
2017-11-03T04:34:03.985Z,100959
2017-11-03T04:36:32.096Z,100953
2017-11-03T04:39:00.295Z,100951
2017-11-03T04:41:28.478Z,100952
2017-11-03T04:43:57.592Z,100955
2017-11-03T04:46:25.818Z,100950
2017-11-03T04:48:54.725Z,100951
2017-11-03T04:51:23.008Z,100954
2017-11-03T04:53:51.177Z,100950
2017-11-03T04:56:19.838Z,100951
2017-11-03T04:58:49.072Z,100951
2017-11-03T05:01:17.497Z,100951
2017-11-03T05:03:46.613Z,100951
2017-11-03T05:06:14.781Z,100946
2017-11-03T05:08:43.468Z,100951
2017-11-03T05:11:11.653Z,100951
2017-11-03T05:13:39.767Z,100948
2017-11-03T05:16:07.927Z,100943
2017-11-03T05:18:37.022Z,100950
2017-11-03T05:21:05.231Z,100941
2017-11-03T05:23:34.353Z,100945
2017-11-03T05:26:02.587Z,100946
2017-11-03T05:28:30.819Z,100938
2017-11-03T05:30:59.486Z,100939
2017-11-03T05:33:29.015Z,100949
2017-11-03T05:35:58.035Z,100943
2017-11-03T05:38:27.061Z,100944
2017-11-03T05:40:56.198Z,100950
2017-11-03T05:43:24.368Z,100948
2017-11-03T05:45:52.550Z,100949
2017-11-03T05:48:24.205Z,100951
2017-11-03T05:50:52.463Z,100944
2017-11-03T05:53:20.775Z,100949
2017-11-03T05:55:48.912Z,100948
2017-11-03T05:58:17.071Z,100945
2017-11-03T06:00:46.401Z,100940
2017-11-03T06:03:15.835Z,100613
2017-11-03T06:05:44.773Z,100955
2017-11-03T06:08:13.258Z,100951
2017-11-03T06:10:41.544Z,100950
2017-11-03T06:13:09.939Z,100950
2017-11-03T06:15:38.181Z,100947
2017-11-03T06:18:07.517Z,100948
2017-11-03T06:20:35.808Z,100946
2017-11-03T06:23:05.859Z,100951
2017-11-03T06:25:35.123Z,100950
2017-11-03T06:28:03.476Z,100951
2017-11-03T06:30:32.617Z,100953
2017-11-03T06:33:04.537Z,100955
2017-11-03T06:35:37.587Z,100953
2017-11-03T06:38:06.723Z,100959
2017-11-03T06:40:34.969Z,100965
2017-11-03T06:43:04.698Z,100963
2017-11-03T06:45:32.885Z,100965
2017-11-03T06:48:03.333Z,100972
2017-11-03T06:50:37.584Z,100974
2017-11-03T06:53:06.959Z,100973
2017-11-03T06:55:36.038Z,100969
2017-11-03T06:58:05.543Z,100973
2017-11-03T07:00:35.755Z,100966
2017-11-03T07:03:03.947Z,100971
2017-11-03T07:05:32.142Z,100983
2017-11-03T07:08:06.781Z,100985
2017-11-03T07:10:35.699Z,100974
2017-11-03T07:13:04.861Z,100976
2017-11-03T07:29:04.664Z,100988
2017-11-03T07:31:36.712Z,100993
2017-11-03T07:34:06.234Z,100994
2017-11-03T07:36:34.406Z,100993
2017-11-03T07:39:02.569Z,100998
2017-11-03T07:41:31.488Z,100999
2017-11-03T07:44:00.156Z,101005
2017-11-03T07:46:29.161Z,101003
2017-11-03T07:48:57.483Z,100996
2017-11-03T07:51:25.809Z,100998
2017-11-03T07:53:55.019Z,101012
2017-11-03T07:56:25.205Z,101000
2017-11-03T07:58:54.167Z,101003
2017-11-03T08:01:22.657Z,101003
2017-11-03T08:03:51.684Z,100998
2017-11-03T08:06:20.579Z,100998
2017-11-03T08:08:49.084Z,101002
2017-11-03T08:11:17.216Z,100997
2017-11-03T08:13:45.429Z,100997
2017-11-03T08:16:13.578Z,101007
2017-11-03T08:18:43.141Z,100962
2017-11-03T08:21:11.355Z,101002
2017-11-03T08:23:40.689Z,100989
2017-11-03T08:26:08.861Z,100997
2017-11-03T08:28:37.413Z,100989
2017-11-03T08:31:05.536Z,100988
2017-11-03T08:33:34.642Z,100991
2017-11-03T08:36:02.833Z,100997
2017-11-03T08:38:31.024Z,100989
2017-11-03T08:40:59.146Z,100988
2017-11-03T08:43:27.325Z,100991
2017-11-03T08:45:55.547Z,100989
2017-11-03T08:48:23.708Z,100991
2017-11-03T08:50:52.996Z,100986
2017-11-03T08:53:21.108Z,100982
2017-11-03T08:55:51.307Z,100982
2017-11-03T08:58:20.617Z,100984
2017-11-03T09:00:50.024Z,100981
2017-11-03T09:03:19.155Z,100984
2017-11-03T09:05:47.462Z,100971
2017-11-03T09:08:15.740Z,100969
2017-11-03T09:10:43.914Z,100974
2017-11-03T09:13:12.308Z,100974
2017-11-03T09:15:41.418Z,100975
2017-11-03T09:18:09.687Z,100973
2017-11-03T09:20:37.895Z,100979
2017-11-03T09:23:07.003Z,100978
2017-11-03T09:25:35.429Z,100980
2017-11-03T09:28:03.705Z,100981
2017-11-03T09:30:32.392Z,100980
2017-11-03T09:33:00.833Z,100986
2017-11-03T09:35:28.943Z,100983
2017-11-03T09:37:57.354Z,100993
2017-11-03T09:40:25.505Z,100983
2017-11-03T09:42:54.469Z,100981
2017-11-03T09:45:22.609Z,100986
2017-11-03T09:47:50.827Z,100972
2017-11-03T09:50:19.600Z,100985
2017-11-03T09:52:49.778Z,100985
2017-11-03T09:55:17.905Z,100989
2017-11-03T09:57:46.089Z,100979
2017-11-03T10:00:14.358Z,100974
2017-11-03T10:02:42.726Z,100970
2017-11-03T10:05:11.038Z,100976
2017-11-03T10:07:39.976Z,100980
2017-11-03T10:10:08.072Z,100978
2017-11-03T10:12:36.191Z,100976
2017-11-03T10:15:04.329Z,100976
2017-11-03T10:17:33.087Z,100972
2017-11-03T10:20:01.248Z,100976
2017-11-03T10:22:29.417Z,100979
2017-11-03T10:24:57.556Z,100975
2017-11-03T10:27:25.869Z,100971
2017-11-03T10:29:54.792Z,100963
2017-11-03T10:32:23.188Z,100968
2017-11-03T10:34:51.305Z,100970
2017-11-03T10:37:20.191Z,100963
2017-11-03T10:39:49.194Z,100971
2017-11-03T10:42:17.341Z,100958
2017-11-03T10:44:45.728Z,100959
2017-11-03T10:47:14.022Z,100957
2017-11-03T10:49:42.893Z,100968
2017-11-03T10:52:11.803Z,100966
2017-11-03T10:54:40.324Z,100958
2017-11-03T10:57:08.456Z,100952
2017-11-03T10:59:36.629Z,100949
2017-11-03T11:02:08.587Z,100947
2017-11-03T11:04:36.795Z,100949
2017-11-03T11:07:04.970Z,100941
2017-11-03T11:09:33.970Z,100938
2017-11-03T11:12:02.126Z,100943
2017-11-03T11:14:30.385Z,100939
2017-11-03T11:16:58.712Z,100929
2017-11-03T11:19:26.923Z,100929
2017-11-03T11:21:55.107Z,100945
2017-11-03T11:24:23.431Z,100931
2017-11-03T11:26:52.027Z,100928
2017-11-03T11:29:20.173Z,100920
2017-11-03T11:31:48.309Z,100923
2017-11-03T11:34:17.280Z,100926
2017-11-03T11:36:46.485Z,100912
2017-11-03T11:39:14.620Z,100916
2017-11-03T11:41:43.751Z,100923
2017-11-03T11:44:12.772Z,100909
2017-11-03T11:46:41.892Z,100912
2017-11-03T11:49:10.310Z,100913
2017-11-03T11:51:39.476Z,100907
2017-11-03T11:54:07.954Z,100909
2017-11-03T11:56:36.078Z,100910
2017-11-03T11:59:04.260Z,100899
2017-11-03T12:01:33.923Z,100899
2017-11-03T12:04:03.052Z,100896
2017-11-03T12:06:31.591Z,100895
2017-11-03T12:08:59.893Z,100897
2017-11-03T12:11:28.079Z,100898
2017-11-03T12:13:56.223Z,100892
2017-11-03T12:16:24.341Z,100881
2017-11-03T12:18:52.516Z,100871
2017-11-03T12:21:21.612Z,100886
2017-11-03T12:23:49.781Z,100883
2017-11-03T12:26:19.187Z,100885
2017-11-03T12:28:49.312Z,100884
2017-11-03T12:31:18.402Z,100465
2017-11-03T12:33:46.627Z,100875
2017-11-03T12:36:14.772Z,100871
2017-11-03T12:38:45.271Z,100867
2017-11-03T12:41:13.456Z,100868
2017-11-03T12:43:44.387Z,100866
2017-11-03T12:46:14.416Z,100872
2017-11-03T12:48:42.622Z,100869
2017-11-03T12:51:10.828Z,100858
2017-11-03T12:53:39.010Z,100858
2017-11-03T12:56:07.282Z,100863
2017-11-03T12:58:35.461Z,100852
2017-11-03T13:01:04.415Z,100853
2017-11-03T13:03:33.252Z,100844
2017-11-03T13:06:01.407Z,100848
2017-11-03T13:08:29.533Z,100835
2017-11-03T13:10:57.684Z,100849
2017-11-03T13:13:25.816Z,100848
2017-11-03T13:15:53.917Z,100844
2017-11-03T13:18:22.085Z,100827
2017-11-03T13:20:50.226Z,100830
2017-11-03T13:23:19.440Z,100822
2017-11-03T13:25:47.547Z,100822
2017-11-03T13:28:15.675Z,100822
2017-11-03T13:30:43.985Z,100815
2017-11-03T13:33:12.147Z,100818
2017-11-03T13:35:40.529Z,100818
2017-11-03T13:38:08.697Z,100814
2017-11-03T13:40:39.945Z,100814
2017-11-03T13:43:09.035Z,100814
2017-11-03T13:45:37.129Z,100819
2017-11-03T13:48:05.292Z,100806
2017-11-03T13:50:33.540Z,100812
2017-11-03T13:53:02.531Z,100810
2017-11-03T13:55:30.717Z,100799
2017-11-03T13:57:58.886Z,100808
2017-11-03T14:00:27.053Z,100803
2017-11-03T14:02:55.959Z,100798
2017-11-03T14:05:24.105Z,100811
2017-11-03T14:07:52.272Z,100805
2017-11-03T14:10:21.377Z,100807
2017-11-03T14:12:49.488Z,100805
2017-11-03T14:15:17.653Z,100802
2017-11-03T14:17:45.823Z,100804
2017-11-03T14:20:13.993Z,100793
2017-11-03T14:22:42.143Z,100792
2017-11-03T14:25:10.240Z,100787
2017-11-03T14:27:38.412Z,100787
2017-11-03T14:30:06.525Z,100783
2017-11-03T14:32:34.686Z,100781
2017-11-03T14:35:02.808Z,100781
2017-11-03T14:37:31.116Z,100769
2017-11-03T14:39:59.240Z,100782
2017-11-03T14:42:28.187Z,100783
2017-11-03T14:44:58.029Z,100778
2017-11-03T14:47:26.233Z,100772
2017-11-03T14:49:54.353Z,100779
2017-11-03T14:52:22.877Z,100781
2017-11-03T14:54:51.956Z,100786
2017-11-03T14:57:21.028Z,100779
2017-11-03T14:59:49.136Z,100777
2017-11-03T15:02:17.496Z,100774
2017-11-03T15:04:47.349Z,100775
2017-11-03T15:07:15.502Z,100772
2017-11-03T15:09:44.408Z,100774
2017-11-03T15:12:12.499Z,100771
2017-11-03T15:14:40.646Z,100772
2017-11-03T15:17:08.775Z,100770
2017-11-03T15:19:37.206Z,100771
2017-11-03T15:22:06.244Z,100767
2017-11-03T15:24:34.625Z,100774
2017-11-03T15:27:03.799Z,100762
2017-11-03T15:29:31.942Z,100762
2017-11-03T15:32:00.122Z,100770
2017-11-03T15:34:29.656Z,100767
2017-11-03T15:36:58.089Z,100768
2017-11-03T15:39:26.577Z,100763
2017-11-03T15:41:54.734Z,100764
2017-11-03T15:44:24.437Z,100754
2017-11-03T15:46:52.855Z,100748
2017-11-03T15:49:21.003Z,100756
2017-11-03T15:51:49.128Z,100743
2017-11-03T15:54:17.265Z,100743
2017-11-03T15:56:46.346Z,100744
2017-11-03T15:59:15.362Z,100752
2017-11-03T16:01:43.903Z,100734
2017-11-03T16:04:12.020Z,100738
2017-11-03T16:06:40.176Z,100736
2017-11-03T16:09:09.067Z,100746
2017-11-03T16:11:37.198Z,100747
2017-11-03T16:14:05.301Z,100743
2017-11-03T16:16:33.456Z,100743
2017-11-03T16:19:01.571Z,100742
2017-11-03T16:21:30.312Z,100759
2017-11-03T16:23:58.428Z,100746
2017-11-03T16:26:27.288Z,100746
2017-11-03T16:28:55.516Z,100747
2017-11-03T16:31:24.485Z,100751
2017-11-03T16:33:52.662Z,100755
2017-11-03T16:36:21.824Z,100740
2017-11-03T16:38:49.905Z,100743
2017-11-03T16:41:18.063Z,100731
2017-11-03T16:43:46.165Z,100738
2017-11-03T16:46:15.601Z,100737
2017-11-03T16:48:44.662Z,100738
2017-11-03T16:51:13.598Z,100732
2017-11-03T16:53:43.331Z,100748
2017-11-03T16:56:11.505Z,100751
2017-11-03T16:58:40.264Z,100754
2017-11-03T17:01:08.383Z,100752
2017-11-03T17:03:36.890Z,100757
2017-11-03T17:06:05.015Z,100754
2017-11-03T17:08:33.130Z,100760
2017-11-03T17:11:02.186Z,100751
2017-11-03T17:13:30.620Z,100749
2017-11-03T17:15:58.969Z,100751
2017-11-03T17:18:27.132Z,100745
2017-11-03T17:20:55.987Z,100746
2017-11-03T17:23:24.093Z,100740
2017-11-03T17:25:52.941Z,100750
2017-11-03T17:28:21.081Z,100744
2017-11-03T17:30:53.001Z,100743
2017-11-03T17:33:21.222Z,100745
2017-11-03T17:35:50.083Z,100748
2017-11-03T17:38:18.266Z,100745
2017-11-03T17:40:46.410Z,100738
2017-11-03T17:43:14.555Z,100739
2017-11-03T17:45:42.685Z,100732
2017-11-03T17:48:10.805Z,100732
2017-11-03T17:50:39.096Z,100723
2017-11-03T17:53:08.049Z,100726
2017-11-03T17:55:36.182Z,100724
2017-11-03T17:58:04.315Z,100719
2017-11-03T18:00:32.457Z,100738
2017-11-03T18:03:00.564Z,100718
2017-11-03T18:05:28.680Z,100721
2017-11-03T18:07:56.881Z,100724
2017-11-03T18:10:25.041Z,100718
2017-11-03T18:12:53.157Z,100717
2017-11-03T18:15:21.482Z,100719
2017-11-03T18:17:49.596Z,100724
2017-11-03T18:20:17.787Z,100721
2017-11-03T18:22:45.905Z,100726
2017-11-03T18:25:14.047Z,100725
2017-11-03T18:27:42.142Z,100717
2017-11-03T18:30:10.269Z,100719
2017-11-03T18:32:38.522Z,100718
2017-11-03T18:35:06.984Z,100717
2017-11-03T18:37:35.129Z,100717
2017-11-03T18:40:03.326Z,100715
2017-11-03T18:42:31.654Z,100723
2017-11-03T18:44:59.764Z,100716
2017-11-03T18:47:27.892Z,100711
2017-11-03T18:49:56.091Z,100704
2017-11-03T18:52:24.230Z,100707
2017-11-03T18:54:52.470Z,100710
2017-11-03T18:57:20.996Z,100706
2017-11-03T18:59:49.127Z,100705
2017-11-03T19:02:20.939Z,100710
2017-11-03T19:04:49.896Z,100711
2017-11-03T19:07:18.113Z,100710
2017-11-03T19:09:46.232Z,100698
2017-11-03T19:12:14.727Z,100709
2017-11-03T19:14:43.190Z,100713
2017-11-03T19:17:14.071Z,100700
2017-11-03T19:19:43.265Z,100708
2017-11-03T19:22:11.433Z,100699
2017-11-03T19:24:39.586Z,100693
2017-11-03T19:27:07.773Z,100698
2017-11-03T19:29:35.976Z,100700
2017-11-03T19:32:04.132Z,100700
2017-11-03T19:34:33.012Z,100702
2017-11-03T19:37:03.142Z,100696
2017-11-03T19:39:31.539Z,100695
2017-11-03T19:41:59.658Z,100696
2017-11-03T19:44:27.817Z,100701
2017-11-03T19:46:55.954Z,100694
2017-11-03T19:49:24.077Z,100701
2017-11-03T19:51:53.145Z,100703
2017-11-03T19:54:21.266Z,100694
2017-11-03T19:56:50.170Z,100694
2017-11-03T19:59:22.403Z,100701
2017-11-03T20:01:50.601Z,100688
2017-11-03T20:04:19.389Z,100694
2017-11-03T20:06:47.540Z,100691
2017-11-03T20:09:15.718Z,100684
2017-11-03T20:11:43.920Z,100684
2017-11-03T20:14:12.160Z,100684
2017-11-03T20:16:40.398Z,100688
2017-11-03T20:19:08.554Z,100691
2017-11-03T20:21:36.920Z,100688
2017-11-03T20:24:07.040Z,100688
2017-11-03T20:26:37.141Z,100685
2017-11-03T20:29:05.316Z,100682
2017-11-03T20:31:33.419Z,100682
2017-11-03T20:34:04.193Z,100678
2017-11-03T20:36:32.343Z,100684
2017-11-03T20:39:00.476Z,100682
2017-11-03T20:41:29.449Z,100680
2017-11-03T20:43:57.591Z,100688
2017-11-03T20:46:26.827Z,100683
2017-11-03T20:48:55.781Z,100686
2017-11-03T20:51:23.939Z,100687
2017-11-03T20:53:52.185Z,100679
2017-11-03T20:56:21.592Z,100667
2017-11-03T20:58:49.825Z,100661
2017-11-03T21:01:18.236Z,100667
2017-11-03T21:03:46.402Z,100664
2017-11-03T21:06:14.504Z,100665
2017-11-03T21:08:42.652Z,100656
2017-11-03T21:11:11.697Z,100672
2017-11-03T21:13:40.729Z,100661
2017-11-03T21:16:09.804Z,100655
2017-11-03T21:18:38.116Z,100648
2017-11-03T21:21:06.260Z,100644
2017-11-03T21:23:34.397Z,100639
2017-11-03T21:26:02.552Z,100642
2017-11-03T21:28:30.898Z,100628
2017-11-03T21:30:59.207Z,100631
2017-11-03T21:33:27.343Z,100635
2017-11-03T21:35:55.523Z,100629
2017-11-03T21:38:23.767Z,100632
2017-11-03T21:40:52.511Z,100631
2017-11-03T21:43:25.474Z,100629
2017-11-03T21:45:53.963Z,100621
2017-11-03T21:48:22.165Z,100627
2017-11-03T21:50:50.440Z,100627
2017-11-03T21:53:19.501Z,100627
2017-11-03T21:55:47.650Z,100631
2017-11-03T21:58:16.876Z,100628
2017-11-03T22:00:45.041Z,100616
2017-11-03T22:03:13.391Z,100608
2017-11-03T22:05:41.517Z,100618
2017-11-03T22:08:09.780Z,100614
2017-11-03T22:10:37.910Z,100616
2017-11-03T22:13:06.142Z,100616
2017-11-03T22:15:34.334Z,100610
2017-11-03T22:18:02.602Z,100608
2017-11-03T22:20:32.769Z,100610
2017-11-03T22:23:00.876Z,100611
2017-11-03T22:25:29.033Z,100612
2017-11-03T22:27:57.193Z,100608
2017-11-03T22:30:25.451Z,100619
2017-11-03T22:32:53.616Z,100610
2017-11-03T22:35:21.738Z,100607
2017-11-03T22:37:50.148Z,100604
2017-11-03T22:40:18.363Z,100603
2017-11-03T22:42:47.326Z,100599
2017-11-03T22:45:15.569Z,100602
2017-11-03T22:47:44.452Z,100605
2017-11-03T22:50:12.652Z,100611
2017-11-03T22:52:40.837Z,100612
2017-11-03T22:55:08.967Z,100609
2017-11-03T22:57:37.996Z,100603
2017-11-03T23:00:06.329Z,100607
2017-11-03T23:02:34.484Z,100600
2017-11-03T23:05:02.694Z,100598
2017-11-03T23:07:31.858Z,100604
2017-11-03T23:10:00.024Z,100596
2017-11-03T23:12:28.780Z,100588
2017-11-03T23:14:57.774Z,100586
2017-11-03T23:17:26.228Z,100576
2017-11-03T23:19:54.329Z,100579
2017-11-03T23:22:22.501Z,100575
2017-11-03T23:24:52.130Z,100575
2017-11-03T23:27:20.655Z,100575
2017-11-03T23:29:49.180Z,100568
2017-11-03T23:32:18.084Z,100574
2017-11-03T23:34:46.224Z,100563
2017-11-03T23:37:14.310Z,100574
2017-11-03T23:39:42.494Z,100571
2017-11-03T23:42:10.847Z,100571
2017-11-03T23:44:39.179Z,100574
2017-11-03T23:47:07.297Z,100569
2017-11-03T23:49:35.469Z,100568
2017-11-03T23:52:03.673Z,100562
2017-11-03T23:54:31.829Z,100567
2017-11-03T23:56:59.995Z,100557
2017-11-03T23:59:28.202Z,100556
